Time;durP1;ratioP1;P1;durP2;ratioP2;P2;SDS_P1;SDS_P2;PMS_P1;PMS_P2;Temp;Humidity;BMP_temperature;BMP_pressure;BME280_temperature;BME280_humidity;BME280_pressure;Samples;Min_cycle;Max_cycle;Signal;HPM_P1;HPM_P2
2021/11/26 00:01:13;;;;;;;18.03;12.47;;;4.10;78.80;;;;;;4907104;29;20857;-44
2021/11/26 00:03:40;;;;;;;20.27;14.10;;;4.20;78.90;;;;;;4911152;29;20457;-43
2021/11/26 00:06:07;;;;;;;23.40;13.80;;;4.20;78.80;;;;;;4910101;29;20473;-45
2021/11/26 00:08:34;;;;;;;20.33;12.80;;;4.20;78.70;;;;;;4906979;29;20556;-45
2021/11/26 00:11:01;;;;;;;23.27;14.20;;;4.20;78.60;;;;;;4890266;29;21097;-45
2021/11/26 00:13:35;;;;;;;19.70;13.43;;;4.20;78.70;;;;;;4910189;29;20460;-44
2021/11/26 00:16:08;;;;;;;19.87;13.70;;;4.20;78.50;;;;;;4910536;29;20458;-45
2021/11/26 00:18:41;;;;;;;19.77;14.77;;;4.20;78.50;;;;;;4911132;29;20457;-45
2021/11/26 00:21:09;;;;;;;25.10;14.27;;;4.20;78.40;;;;;;4910409;29;20852;-45
2021/11/26 00:23:36;;;;;;;20.70;13.77;;;4.20;78.30;;;;;;4880559;29;20556;-45
2021/11/26 00:26:03;;;;;;;20.63;13.93;;;4.20;78.30;;;;;;4910020;29;20706;-45
2021/11/26 00:28:30;;;;;;;18.77;13.63;;;4.20;78.30;;;;;;4908193;29;20454;-44
2021/11/26 00:30:57;;;;;;;19.80;13.10;;;4.20;78.30;;;;;;4913418;29;20457;-46
2021/11/26 00:33:25;;;;;;;18.20;13.67;;;4.20;78.20;;;;;;4895985;29;20464;-45
2021/11/26 00:35:52;;;;;;;20.10;14.53;;;4.20;77.80;;;;;;4896448;29;20464;-45
2021/11/26 00:38:19;;;;;;;20.60;13.47;;;4.20;77.60;;;;;;4911210;29;20884;-45
2021/11/26 00:40:46;;;;;;;26.03;12.33;;;4.20;77.60;;;;;;4911706;29;20457;-45
2021/11/26 00:43:12;;;;;;;21.43;15.27;;;4.20;77.60;;;;;;4910563;29;20902;-44
2021/11/26 00:45:39;;;;;;;17.60;11.70;;;4.20;77.80;;;;;;4912277;29;20461;-45
2021/11/26 00:48:06;;;;;;;23.37;14.27;;;4.20;77.80;;;;;;4908664;29;20467;-45
2021/11/26 00:50:33;;;;;;;19.53;13.97;;;4.20;77.80;;;;;;4911613;29;20556;-45
2021/11/26 00:53:00;;;;;;;21.13;14.57;;;4.20;77.80;;;;;;4895466;29;20459;-44
2021/11/26 00:55:27;;;;;;;21.67;15.10;;;4.20;77.90;;;;;;4910493;29;20481;-45
2021/11/26 00:57:54;;;;;;;20.93;14.47;;;4.20;77.90;;;;;;4910372;29;20501;-45
2021/11/26 01:00:21;;;;;;;19.53;13.10;;;4.20;77.90;;;;;;4910335;29;20453;-44
2021/11/26 01:02:48;;;;;;;23.20;15.50;;;4.10;77.90;;;;;;4911266;29;20591;-45
2021/11/26 01:05:15;;;;;;;23.60;14.37;;;4.10;77.80;;;;;;4894467;29;20457;-45
2021/11/26 01:07:43;;;;;;;21.63;13.40;;;4.10;77.90;;;;;;4895502;29;20469;-44
2021/11/26 01:10:17;;;;;;;18.07;12.73;;;4.10;77.90;;;;;;4910532;29;20461;-44
2021/11/26 01:12:45;;;;;;;22.33;13.07;;;4.20;77.60;;;;;;4896407;29;20448;-44
2021/11/26 01:15:15;;;;;;;20.93;13.50;;;4.10;77.80;;;;;;4910358;29;20460;-45
2021/11/26 01:17:42;;;;;;;19.97;12.60;;;4.00;77.90;;;;;;4911067;29;20487;-45
2021/11/26 01:20:16;;;;;;;16.97;12.23;;;4.00;78.30;;;;;;4910988;29;20461;-45
2021/11/26 01:22:43;;;;;;;17.17;12.80;;;3.90;78.30;;;;;;4894205;29;20465;-45
2021/11/26 01:25:11;;;;;;;18.60;12.97;;;3.90;78.30;;;;;;4910893;29;20986;-45
2021/11/26 01:27:38;;;;;;;19.13;12.47;;;3.80;78.60;;;;;;4909082;29;20469;-44
2021/11/26 01:30:14;;;;;;;18.27;12.37;;;3.80;78.60;;;;;;4910561;29;21245;-44
2021/11/26 01:32:42;;;;;;;22.17;12.40;;;3.80;78.50;;;;;;4894175;29;20828;-44
2021/11/26 01:35:09;;;;;;;18.63;13.43;;;3.70;78.60;;;;;;4911251;29;20848;-44
2021/11/26 01:37:36;;;;;;;20.97;13.47;;;3.60;78.70;;;;;;4911142;29;20497;-44
2021/11/26 01:40:05;;;;;;;16.30;11.73;;;3.60;78.80;;;;;;4910872;29;20460;-45
2021/11/26 01:42:32;;;;;;;17.73;12.10;;;3.60;78.80;;;;;;4910703;29;20459;-45
2021/11/26 01:44:58;;;;;;;20.80;12.50;;;3.60;78.60;;;;;;4912457;29;20463;-45
2021/11/26 01:47:25;;;;;;;19.77;13.67;;;3.60;78.80;;;;;;4911354;29;20456;-44
2021/11/26 01:49:52;;;;;;;18.20;13.33;;;3.50;78.80;;;;;;4894445;29;20471;-44
2021/11/26 01:52:19;;;;;;;19.07;13.23;;;3.50;78.90;;;;;;4893196;29;20456;-44
2021/11/26 01:54:46;;;;;;;23.20;14.00;;;3.40;79.10;;;;;;4911627;29;20453;-44
2021/11/26 01:57:13;;;;;;;26.40;15.33;;;3.40;79.10;;;;;;4893483;29;20503;-44
2021/11/26 01:59:40;;;;;;;24.50;14.20;;;3.40;79.30;;;;;;4906938;29;21287;-44
2021/11/26 02:02:07;;;;;;;24.97;16.20;;;3.40;79.40;;;;;;4907936;29;20542;-44
2021/11/26 02:04:34;;;;;;;19.30;13.90;;;3.30;79.50;;;;;;4908307;29;20941;-44
2021/11/26 02:07:01;;;;;;;20.60;14.27;;;3.40;79.80;;;;;;4908916;29;20464;-44
2021/11/26 02:09:28;;;;;;;25.40;13.70;;;3.40;79.70;;;;;;4909845;29;20475;-44
2021/11/26 02:11:55;;;;;;;20.03;14.53;;;3.40;79.90;;;;;;4907820;29;20477;-44
2021/11/26 02:14:22;;;;;;;25.17;14.57;;;3.40;80.00;;;;;;4906239;29;20473;-44
2021/11/26 02:16:50;;;;;;;21.87;13.83;;;3.30;80.00;;;;;;4890435;29;20496;-45
2021/11/26 02:19:21;;;;;;;19.57;13.67;;;3.30;80.10;;;;;;4893258;29;20854;-45
2021/11/26 02:21:48;;;;;;;23.17;14.70;;;3.40;80.40;;;;;;4894554;29;20469;-44
2021/11/26 02:24:15;;;;;;;20.13;12.80;;;3.40;80.50;;;;;;4908829;29;20487;-44
2021/11/26 02:26:44;;;;;;;25.90;14.67;;;3.40;80.50;;;;;;4891571;29;20476;-44
2021/11/26 02:29:12;;;;;;;21.73;14.33;;;3.40;80.50;;;;;;4876120;29;20476;-45
2021/11/26 02:31:39;;;;;;;24.10;14.83;;;3.40;80.60;;;;;;4909197;29;20463;-45
2021/11/26 02:34:06;;;;;;;22.13;14.03;;;3.40;80.60;;;;;;4909277;29;20472;-45
2021/11/26 02:36:33;;;;;;;18.57;13.10;;;3.40;80.50;;;;;;4893343;29;20475;-44
2021/11/26 02:39:00;;;;;;;21.27;13.27;;;3.40;80.60;;;;;;4908905;29;21186;-45
2021/11/26 02:41:27;;;;;;;21.93;14.57;;;3.40;80.50;;;;;;4905495;29;20491;-44
2021/11/26 02:43:53;;;;;;;22.40;13.90;;;3.40;80.60;;;;;;4892711;29;20464;-44
2021/11/26 02:46:20;;;;;;;19.00;13.47;;;3.50;80.60;;;;;;4909670;29;20468;-44
2021/11/26 02:48:47;;;;;;;22.33;13.63;;;3.50;80.60;;;;;;4909673;29;20480;-45
2021/11/26 02:51:14;;;;;;;19.10;12.57;;;3.50;80.60;;;;;;4893570;29;20481;-44
2021/11/26 02:53:41;;;;;;;22.33;12.80;;;3.60;80.90;;;;;;4906588;29;20464;-45
2021/11/26 02:56:07;;;;;;;29.47;16.07;;;3.60;80.80;;;;;;4908084;29;20519;-44
2021/11/26 02:58:34;;;;;;;22.43;15.17;;;3.60;80.90;;;;;;4908656;29;20500;-44
2021/11/26 03:01:01;;;;;;;22.03;14.00;;;3.70;80.80;;;;;;4891856;29;20469;-44
2021/11/26 03:03:28;;;;;;;22.60;14.70;;;3.70;80.60;;;;;;4908991;29;20478;-44
2021/11/26 03:05:58;;;;;;;17.77;12.63;;;3.70;80.70;;;;;;4909841;29;20457;-44
2021/11/26 03:08:24;;;;;;;22.77;14.63;;;3.70;80.60;;;;;;4876371;29;20479;-45
2021/11/26 03:10:51;;;;;;;20.50;13.47;;;3.70;80.60;;;;;;4907943;29;20972;-44
2021/11/26 03:13:18;;;;;;;22.93;13.23;;;3.70;80.60;;;;;;4909397;29;20471;-44
2021/11/26 03:15:46;;;;;;;29.33;15.33;;;3.70;80.50;;;;;;4906068;29;20487;-45
2021/11/26 03:18:18;;;;;;;17.90;12.90;;;3.70;80.50;;;;;;4908833;29;20877;-45
2021/11/26 03:20:47;;;;;;;21.07;13.60;;;3.70;80.50;;;;;;4892692;29;20463;-44
2021/11/26 03:23:15;;;;;;;19.97;14.37;;;3.70;80.50;;;;;;4909369;29;20460;-43
2021/11/26 03:25:43;;;;;;;21.73;13.07;;;3.80;80.40;;;;;;4893235;29;20464;-42
2021/11/26 03:28:11;;;;;;;17.00;13.00;;;3.80;80.40;;;;;;4908586;29;20473;-43
2021/11/26 03:30:38;;;;;;;22.30;13.90;;;3.80;80.30;;;;;;4909791;29;20469;-43
2021/11/26 03:33:06;;;;;;;21.93;14.43;;;3.80;80.30;;;;;;4907248;29;20745;-42
2021/11/26 03:35:33;;;;;;;17.80;13.00;;;3.90;80.10;;;;;;4908195;29;20472;-43
2021/11/26 03:38:01;;;;;;;19.63;13.47;;;3.90;80.10;;;;;;4911761;29;20996;-43
2021/11/26 03:40:28;;;;;;;23.37;13.30;;;3.80;80.20;;;;;;4912095;29;20844;-42
2021/11/26 03:42:57;;;;;;;16.93;13.00;;;3.80;80.20;;;;;;4892137;29;20965;-42
2021/11/26 03:45:26;;;;;;;23.37;13.93;;;3.80;80.20;;;;;;4909150;29;20480;-43
2021/11/26 03:47:55;;;;;;;25.07;14.37;;;3.90;80.00;;;;;;4909968;29;20880;-42
2021/11/26 03:50:23;;;;;;;24.23;14.33;;;3.90;80.10;;;;;;4909470;29;20479;-42
2021/11/26 03:52:51;;;;;;;21.60;14.63;;;3.90;80.10;;;;;;4909988;29;20491;-43
2021/11/26 03:55:21;;;;;;;19.73;13.73;;;3.90;80.20;;;;;;4892530;29;20827;-42
2021/11/26 03:57:50;;;;;;;18.97;13.90;;;3.90;80.20;;;;;;4908087;29;20492;-43
2021/11/26 04:00:18;;;;;;;21.87;13.27;;;3.90;80.20;;;;;;4909468;29;20887;-43
2021/11/26 04:02:46;;;;;;;21.87;13.67;;;3.90;80.20;;;;;;4903093;29;20460;-43
2021/11/26 04:05:14;;;;;;;17.37;13.20;;;3.90;80.00;;;;;;4908888;29;20461;-43
2021/11/26 04:07:40;;;;;;;23.20;14.50;;;3.90;80.10;;;;;;4909205;29;20469;-43
2021/11/26 04:10:09;;;;;;;20.97;14.07;;;3.90;80.20;;;;;;4895038;29;20514;-42
2021/11/26 04:12:36;;;;;;;21.57;13.67;;;3.90;80.30;;;;;;4909160;29;20472;-43
2021/11/26 04:15:06;;;;;;;22.13;14.57;;;3.90;80.30;;;;;;4907284;29;20507;-43
2021/11/26 04:17:34;;;;;;;21.50;14.80;;;3.90;80.20;;;;;;4908099;29;20572;-43
2021/11/26 04:20:02;;;;;;;21.50;14.23;;;4.00;80.10;;;;;;4886130;29;20812;-43
2021/11/26 04:22:29;;;;;;;23.63;14.77;;;3.90;80.00;;;;;;4892435;29;20472;-43
2021/11/26 04:24:56;;;;;;;20.97;14.77;;;4.00;80.00;;;;;;4908947;29;20948;-43
2021/11/26 04:27:22;;;;;;;21.70;14.70;;;4.00;79.90;;;;;;4891949;29;20473;-43
2021/11/26 04:29:49;;;;;;;21.57;12.80;;;4.00;79.80;;;;;;4908668;29;20497;-43
2021/11/26 04:32:16;;;;;;;19.13;13.13;;;4.00;79.80;;;;;;4909826;29;20559;-42
2021/11/26 04:34:43;;;;;;;23.70;13.90;;;4.00;80.00;;;;;;4907814;29;20904;-43
2021/11/26 04:37:10;;;;;;;21.73;14.00;;;3.90;80.10;;;;;;4908107;29;20472;-43
2021/11/26 04:39:37;;;;;;;25.87;16.20;;;3.90;80.20;;;;;;4909794;29;20473;-42
2021/11/26 04:42:04;;;;;;;19.97;14.27;;;3.90;80.30;;;;;;4890307;29;20461;-43
2021/11/26 04:44:31;;;;;;;24.20;15.50;;;4.00;80.20;;;;;;4908695;29;20461;-43
2021/11/26 04:46:57;;;;;;;21.80;14.20;;;4.00;80.30;;;;;;4893303;29;20479;-42
2021/11/26 04:49:24;;;;;;;20.00;14.07;;;4.00;80.40;;;;;;4909018;29;20979;-43
2021/11/26 04:51:51;;;;;;;20.37;14.73;;;4.00;80.40;;;;;;4894700;29;20484;-43
2021/11/26 04:54:18;;;;;;;24.73;13.10;;;4.00;80.50;;;;;;4909845;29;20492;-43
2021/11/26 04:56:44;;;;;;;21.43;14.40;;;4.10;80.50;;;;;;4906931;29;20481;-44
2021/11/26 04:59:11;;;;;;;27.10;15.07;;;4.10;80.30;;;;;;4907958;29;20493;-44
2021/11/26 05:01:38;;;;;;;24.23;14.13;;;4.10;79.70;;;;;;4908381;29;20469;-43
2021/11/26 05:04:05;;;;;;;24.60;15.27;;;4.10;79.70;;;;;;4907384;29;20499;-43
2021/11/26 05:06:34;;;;;;;26.83;17.60;;;4.10;79.70;;;;;;4891719;29;20844;-43
2021/11/26 05:09:04;;;;;;;26.70;17.87;;;4.00;80.10;;;;;;4905061;29;20473;-43
2021/11/26 05:11:32;;;;;;;32.17;18.10;;;4.00;80.30;;;;;;4906850;29;20465;-43
2021/11/26 05:14:02;;;;;;;22.40;15.53;;;4.00;80.40;;;;;;4906836;29;20827;-42
2021/11/26 05:16:30;;;;;;;23.03;16.17;;;4.10;80.10;;;;;;4905876;29;21008;-43
2021/11/26 05:18:57;;;;;;;19.60;14.30;;;4.10;80.10;;;;;;4907516;29;20500;-42
2021/11/26 05:21:24;;;;;;;21.43;14.63;;;4.10;79.90;;;;;;4907215;29;20465;-43
2021/11/26 05:23:50;;;;;;;28.07;14.90;;;4.00;80.20;;;;;;4903421;29;21044;-43
2021/11/26 05:26:17;;;;;;;24.83;15.33;;;4.10;80.20;;;;;;4905658;29;20472;-43
2021/11/26 05:28:44;;;;;;;25.20;14.70;;;4.10;80.20;;;;;;4903690;29;20838;-43
2021/11/26 05:31:11;;;;;;;23.00;14.10;;;4.10;80.30;;;;;;4891428;29;20481;-42
2021/11/26 05:33:38;;;;;;;22.37;14.63;;;4.20;80.20;;;;;;4893891;29;20473;-43
2021/11/26 05:36:04;;;;;;;25.13;16.60;;;4.10;80.20;;;;;;4908628;29;20460;-43
2021/11/26 05:38:31;;;;;;;22.93;14.90;;;4.10;80.30;;;;;;4890348;29;20484;-43
2021/11/26 05:40:58;;;;;;;23.03;14.00;;;4.10;80.30;;;;;;4910289;29;20456;-43
2021/11/26 05:43:24;;;;;;;21.33;13.97;;;4.00;80.40;;;;;;4908069;29;20472;-43
2021/11/26 05:45:51;;;;;;;21.93;14.17;;;4.00;80.40;;;;;;4906091;29;20912;-42
2021/11/26 05:48:18;;;;;;;22.93;14.40;;;4.10;80.30;;;;;;4907760;29;20918;-42
2021/11/26 05:50:46;;;;;;;19.93;13.87;;;4.10;80.50;;;;;;4904823;29;20973;-43
2021/11/26 05:53:13;;;;;;;21.13;14.80;;;4.10;80.30;;;;;;4907079;29;20930;-43
2021/11/26 05:55:40;;;;;;;23.10;14.60;;;4.10;80.30;;;;;;4905099;29;20512;-43
2021/11/26 05:58:07;;;;;;;20.10;14.40;;;4.10;80.30;;;;;;4892317;29;20493;-42
2021/11/26 06:00:35;;;;;;;22.00;14.33;;;4.10;80.50;;;;;;4908454;29;20536;-43
2021/11/26 06:03:03;;;;;;;21.70;15.87;;;4.20;80.50;;;;;;4909703;29;20452;-43
2021/11/26 06:05:31;;;;;;;22.40;15.43;;;4.10;80.50;;;;;;4906368;29;20468;-43
2021/11/26 06:07:58;;;;;;;28.83;16.43;;;4.10;80.50;;;;;;4908936;29;20511;-43
2021/11/26 06:10:30;;;;;;;24.70;13.90;;;4.10;80.50;;;;;;4902172;29;20478;-43
2021/11/26 06:12:56;;;;;;;25.03;15.40;;;4.10;80.50;;;;;;4889617;29;20461;-43
2021/11/26 06:15:23;;;;;;;22.53;14.17;;;4.10;80.20;;;;;;4905600;29;20980;-43
2021/11/26 06:17:50;;;;;;;23.43;14.50;;;4.10;80.20;;;;;;4890309;29;20497;-43
2021/11/26 06:20:18;;;;;;;25.20;16.27;;;4.10;80.10;;;;;;4906498;29;20810;-43
2021/11/26 06:22:45;;;;;;;23.87;16.33;;;4.10;80.00;;;;;;4906711;29;20528;-42
2021/11/26 06:25:14;;;;;;;27.83;16.23;;;4.10;80.10;;;;;;4905198;29;21003;-42
2021/11/26 06:27:41;;;;;;;22.97;14.63;;;4.10;80.20;;;;;;4905068;29;20591;-43
2021/11/26 06:30:12;;;;;;;22.70;15.80;;;4.10;80.20;;;;;;4905743;29;20461;-43
2021/11/26 06:32:41;;;;;;;23.60;16.07;;;4.20;80.20;;;;;;4903882;29;20850;-42
2021/11/26 06:35:09;;;;;;;24.20;15.80;;;4.20;80.10;;;;;;4905720;29;20471;-43
2021/11/26 06:37:36;;;;;;;24.40;16.17;;;4.10;80.20;;;;;;4903792;29;20467;-43
2021/11/26 06:40:05;;;;;;;23.33;13.70;;;4.10;80.30;;;;;;4891466;29;20466;-43
2021/11/26 06:42:32;;;;;;;25.53;15.00;;;4.10;80.50;;;;;;4905275;29;20473;-43
2021/11/26 06:44:58;;;;;;;24.23;16.60;;;4.10;80.30;;;;;;4906277;29;21005;-42
2021/11/26 06:47:25;;;;;;;23.60;15.37;;;4.10;80.20;;;;;;4906220;29;20473;-42
2021/11/26 06:49:52;;;;;;;21.53;14.93;;;4.20;79.90;;;;;;4902488;29;20479;-43
2021/11/26 06:52:19;;;;;;;23.90;15.90;;;4.20;79.80;;;;;;4885535;29;20469;-43
2021/11/26 06:54:47;;;;;;;24.67;14.80;;;4.20;79.80;;;;;;4891369;29;20464;-42
2021/11/26 06:57:14;;;;;;;26.90;15.37;;;4.20;79.90;;;;;;4907452;29;20496;-42
2021/11/26 06:59:41;;;;;;;26.60;15.37;;;4.20;79.90;;;;;;4912226;29;20496;-43
2021/11/26 07:02:08;;;;;;;26.57;15.13;;;4.10;80.00;;;;;;4911838;29;20738;-42
2021/11/26 07:04:37;;;;;;;22.53;14.87;;;4.10;80.20;;;;;;4911575;29;20499;-43
2021/11/26 07:07:04;;;;;;;23.07;14.30;;;4.10;80.30;;;;;;4908539;29;20473;-43
2021/11/26 07:09:32;;;;;;;25.03;16.40;;;4.10;80.50;;;;;;4911021;29;20461;-43
2021/11/26 07:11:59;;;;;;;23.90;15.27;;;4.10;80.60;;;;;;4909520;29;20483;-43
2021/11/26 07:14:41;;;;;;;25.83;14.57;;;4.20;80.60;;;;;;4906518;29;21079;-43
2021/11/26 07:17:09;;;;;;;26.23;16.10;;;4.20;80.50;;;;;;4911615;29;20480;-43
2021/11/26 07:19:38;;;;;;;23.90;13.90;;;4.20;80.60;;;;;;4876639;29;20492;-43
2021/11/26 07:22:06;;;;;;;24.50;15.63;;;4.20;80.60;;;;;;4894605;29;21031;-43
2021/11/26 07:24:33;;;;;;;23.83;15.60;;;4.20;80.50;;;;;;4910100;29;20465;-43
2021/11/26 07:27:00;;;;;;;26.30;15.70;;;4.20;80.30;;;;;;4893227;29;20461;-42
2021/11/26 07:29:27;;;;;;;24.97;16.53;;;4.30;80.20;;;;;;4908305;29;20465;-43
2021/11/26 07:31:53;;;;;;;22.40;14.10;;;4.20;80.50;;;;;;4895428;29;20459;-43
2021/11/26 07:34:20;;;;;;;27.00;14.90;;;4.20;80.60;;;;;;4896597;29;20464;-42
2021/11/26 07:36:47;;;;;;;24.83;14.77;;;4.30;80.60;;;;;;4895741;29;20935;-42
2021/11/26 07:39:14;;;;;;;24.03;14.83;;;4.40;80.30;;;;;;4912263;29;20500;-42
2021/11/26 07:41:41;;;;;;;23.53;14.33;;;4.30;80.30;;;;;;4912028;29;20467;-42
2021/11/26 07:44:09;;;;;;;21.47;14.10;;;4.30;80.50;;;;;;4911104;29;20588;-42
2021/11/26 07:46:35;;;;;;;25.60;16.07;;;4.30;80.50;;;;;;4911030;29;20652;-43
2021/11/26 07:49:02;;;;;;;30.57;14.67;;;4.40;80.30;;;;;;4909766;29;20464;-42
2021/11/26 07:51:29;;;;;;;26.27;16.27;;;4.40;80.40;;;;;;4892291;29;20468;-41
2021/11/26 07:53:57;;;;;;;22.80;14.37;;;4.30;80.60;;;;;;4892729;29;20465;-42
2021/11/26 07:56:24;;;;;;;28.30;15.27;;;4.40;80.40;;;;;;4891542;29;20493;-43
2021/11/26 07:58:51;;;;;;;25.07;14.37;;;4.40;80.10;;;;;;4905065;29;20847;-43
2021/11/26 08:01:17;;;;;;;24.40;15.13;;;4.40;80.20;;;;;;4905378;29;20465;-43
2021/11/26 08:03:44;;;;;;;36.10;16.30;;;4.50;79.20;;;;;;4892555;29;20493;-42
2021/11/26 08:06:13;;;;;;;22.47;14.90;;;4.50;79.50;;;;;;4906350;29;20972;-42
2021/11/26 08:08:40;;;;;;;22.43;15.30;;;4.50;79.70;;;;;;4889779;29;20866;-42
2021/11/26 08:11:08;;;;;;;23.53;13.53;;;4.50;80.00;;;;;;4890152;29;20465;-42
2021/11/26 08:13:35;;;;;;;27.80;15.27;;;4.50;80.10;;;;;;4892129;29;20547;-43
2021/11/26 08:16:02;;;;;;;25.20;16.77;;;4.50;80.10;;;;;;4904926;29;20495;-43
2021/11/26 08:18:30;;;;;;;22.30;15.13;;;4.50;80.10;;;;;;4905585;29;21020;-42
2021/11/26 08:20:57;;;;;;;20.50;14.23;;;4.60;79.80;;;;;;4893501;29;20847;-42
2021/11/26 08:23:25;;;;;;;20.30;14.00;;;4.60;79.80;;;;;;4894038;29;20815;-43
2021/11/26 08:25:53;;;;;;;23.90;13.73;;;4.60;79.80;;;;;;4906994;29;20460;-42
2021/11/26 08:28:19;;;;;;;23.23;15.00;;;4.60;79.70;;;;;;4907877;29;20479;-42
2021/11/26 08:30:46;;;;;;;25.03;15.50;;;4.60;79.70;;;;;;4907012;29;20844;-43
2021/11/26 08:33:13;;;;;;;25.53;14.00;;;4.60;79.40;;;;;;4902024;29;20469;-43
2021/11/26 08:35:40;;;;;;;22.03;14.97;;;4.70;79.50;;;;;;4909231;29;20465;-42
2021/11/26 08:38:07;;;;;;;21.20;14.93;;;4.60;79.50;;;;;;4908338;29;20475;-42
2021/11/26 08:40:33;;;;;;;26.97;15.57;;;4.60;79.80;;;;;;4903772;29;20840;-43
2021/11/26 08:43:01;;;;;;;25.97;14.83;;;4.60;79.80;;;;;;4907016;29;20476;-43
2021/11/26 08:45:28;;;;;;;24.43;17.33;;;4.60;80.00;;;;;;4906335;29;20464;-42
2021/11/26 08:47:55;;;;;;;26.23;14.73;;;4.60;80.10;;;;;;4906539;29;20464;-42
2021/11/26 08:50:23;;;;;;;23.23;15.23;;;4.60;80.20;;;;;;4904458;29;20464;-42
2021/11/26 08:52:50;;;;;;;24.50;15.80;;;4.70;79.90;;;;;;4911355;29;20460;-42
2021/11/26 08:55:17;;;;;;;25.30;16.60;;;4.70;79.80;;;;;;4911025;29;20475;-43
2021/11/26 08:57:54;;;;;;;28.27;17.60;;;4.80;79.80;;;;;;4906200;29;20479;-42
2021/11/26 09:00:25;;;;;;;39.43;21.73;;;4.80;79.40;;;;;;4909247;29;20858;-42
2021/11/26 09:02:52;;;;;;;29.77;15.80;;;4.80;79.60;;;;;;4909647;29;20457;-43
2021/11/26 09:05:20;;;;;;;26.90;17.33;;;4.80;79.40;;;;;;4908258;29;21032;-43
2021/11/26 09:07:47;;;;;;;24.43;17.07;;;4.80;79.50;;;;;;4910627;29;20457;-43
2021/11/26 09:10:16;;;;;;;26.50;16.37;;;4.70;79.70;;;;;;4909525;29;20472;-42
2021/11/26 09:12:43;;;;;;;25.63;15.40;;;4.70;79.80;;;;;;4910150;29;20499;-43
2021/11/26 09:15:12;;;;;;;25.63;15.77;;;4.70;79.90;;;;;;4909187;29;20890;-43
2021/11/26 09:17:40;;;;;;;29.63;16.70;;;4.70;79.90;;;;;;4892865;29;20866;-43
2021/11/26 09:20:07;;;;;;;30.00;17.90;;;4.70;80.00;;;;;;4908969;29;20488;-43
2021/11/26 09:22:35;;;;;;;24.03;14.57;;;4.80;80.10;;;;;;4909965;29;20853;-42
2021/11/26 09:25:03;;;;;;;26.70;17.00;;;4.90;80.00;;;;;;4909748;29;20840;-42
2021/11/26 09:27:30;;;;;;;30.00;17.20;;;4.90;79.80;;;;;;4909440;29;20875;-42
2021/11/26 09:29:57;;;;;;;23.20;15.50;;;4.90;79.70;;;;;;4893548;29;20830;-42
2021/11/26 09:32:24;;;;;;;31.30;16.43;;;4.90;79.90;;;;;;4897372;29;20452;-42
2021/11/26 09:34:51;;;;;;;28.97;16.07;;;4.90;80.00;;;;;;4892887;29;20453;-42
2021/11/26 09:37:18;;;;;;;27.77;16.03;;;5.00;79.70;;;;;;4909382;29;20457;-42
2021/11/26 09:39:45;;;;;;;22.20;14.53;;;5.00;79.50;;;;;;4909536;29;20525;-42
2021/11/26 09:42:12;;;;;;;28.03;15.50;;;5.10;79.20;;;;;;4895540;29;20468;-42
2021/11/26 09:44:42;;;;;;;24.70;14.43;;;5.10;78.50;;;;;;4908296;29;20882;-42
2021/11/26 09:47:09;;;;;;;24.43;15.40;;;5.10;78.50;;;;;;4893040;29;20512;-42
2021/11/26 09:49:37;;;;;;;23.23;14.23;;;5.10;78.50;;;;;;4909291;29;21020;-42
2021/11/26 09:52:04;;;;;;;26.63;16.60;;;5.10;78.70;;;;;;4896506;29;20466;-42
2021/11/26 09:54:42;;;;;;;26.80;15.20;;;5.00;78.70;;;;;;4892896;29;20471;-42
2021/11/26 09:57:10;;;;;;;29.53;16.67;;;5.00;78.90;;;;;;4908211;29;20491;-42
2021/11/26 09:59:39;;;;;;;27.37;17.00;;;5.10;78.90;;;;;;4907500;29;21284;-42
2021/11/26 10:02:12;;;;;;;21.90;16.30;;;5.10;79.00;;;;;;4896140;29;20829;-42
2021/11/26 10:04:39;;;;;;;26.10;15.97;;;5.10;79.10;;;;;;4909123;29;20449;-42
2021/11/26 10:07:06;;;;;;;29.77;17.80;;;5.10;79.20;;;;;;4908868;29;20448;-42
2021/11/26 10:09:36;;;;;;;23.07;14.47;;;5.20;79.20;;;;;;4907354;29;20469;-42
2021/11/26 10:12:06;;;;;;;22.37;14.70;;;5.20;79.20;;;;;;4908846;29;20465;-42
2021/11/26 10:14:45;;;;;;;29.23;17.90;;;5.30;78.90;;;;;;4907904;29;20472;-43
2021/11/26 10:17:23;;;;;;;27.83;15.40;;;5.30;79.10;;;;;;4922120;29;20456;-42
2021/11/26 10:19:51;;;;;;;26.23;15.90;;;5.40;79.30;;;;;;4907904;29;20495;-42
2021/11/26 10:22:36;;;;;;;21.83;14.90;;;5.40;79.30;;;;;;4904549;29;20683;-42
2021/11/26 10:25:04;;;;;;;20.70;14.50;;;5.50;79.20;;;;;;4908600;29;20972;-42
2021/11/26 10:27:57;;;;;;;26.90;16.57;;;5.50;79.50;;;;;;4909110;29;20480;-42
2021/11/26 10:30:54;;;;;;;29.17;16.00;;;5.50;79.90;;;;;;4909084;29;20547;-41
2021/11/26 10:33:36;;;;;;;27.60;15.20;;;5.40;80.40;;;;;;4900034;29;20470;-42
2021/11/26 10:36:03;;;;;;;21.07;16.07;;;5.40;80.80;;;;;;4913151;29;20484;-42
2021/11/26 10:38:33;;;;;;;26.17;16.97;;;5.50;80.90;;;;;;4899353;29;20475;-42
2021/11/26 10:41:29;;;;;;;21.53;14.37;;;5.50;80.90;;;;;;4909342;29;20464;-42
2021/11/26 10:44:06;;;;;;;28.00;15.30;;;5.50;80.60;;;;;;4913124;29;20479;-42
2021/11/26 11:00:01;;;;;;;25.20;15.40;;;5.40;80.20;;;;;;4911312;29;20508;-42
2021/11/26 11:02:36;;;;;;;24.43;15.13;;;5.40;80.40;;;;;;4896375;29;20835;-42
2021/11/26 11:05:04;;;;;;;25.60;16.00;;;5.40;80.40;;;;;;4910289;29;20986;-42
2021/11/26 11:07:45;;;;;;;26.20;15.40;;;5.40;80.40;;;;;;4912049;29;20968;-42
2021/11/26 11:10:24;;;;;;;27.90;16.07;;;5.40;80.60;;;;;;4912705;29;20488;-42
2021/11/26 11:12:50;;;;;;;28.67;17.00;;;5.40;81.20;;;;;;4894607;29;20800;-42
2021/11/26 11:15:20;;;;;;;29.07;16.30;;;5.50;81.60;;;;;;4911339;29;21352;-42
2021/11/26 11:17:48;;;;;;;26.70;17.30;;;5.60;81.80;;;;;;4907761;29;20467;-43
2021/11/26 11:20:16;;;;;;;26.10;15.40;;;5.70;81.80;;;;;;4911390;29;21028;-43
2021/11/26 11:22:44;;;;;;;27.97;16.47;;;5.70;81.80;;;;;;4911151;29;20994;-42
2021/11/26 11:25:14;;;;;;;27.97;15.90;;;5.70;81.90;;;;;;4912458;29;20482;-42
2021/11/26 11:27:41;;;;;;;34.03;17.80;;;5.70;82.30;;;;;;4911552;29;20461;-42
2021/11/26 11:30:11;;;;;;;27.80;15.10;;;5.70;82.40;;;;;;4910078;29;20468;-42
2021/11/26 11:32:38;;;;;;;28.23;15.90;;;5.80;81.60;;;;;;4911280;29;20846;-42
2021/11/26 11:35:08;;;;;;;22.87;15.40;;;5.80;81.30;;;;;;4910142;29;20473;-42
2021/11/26 11:37:36;;;;;;;22.43;15.00;;;5.80;81.60;;;;;;4909515;29;20552;-42
2021/11/26 11:40:09;;;;;;;24.20;15.40;;;5.80;81.60;;;;;;4911913;29;20935;-42
2021/11/26 11:42:37;;;;;;;24.13;14.40;;;5.80;81.30;;;;;;4912333;29;20897;-42
2021/11/26 11:45:16;;;;;;;23.80;13.57;;;5.80;80.80;;;;;;4892325;29;20461;-42
2021/11/26 11:47:55;;;;;;;22.30;14.80;;;5.90;80.80;;;;;;4893797;29;20471;-42
2021/11/26 11:50:25;;;;;;;21.07;12.60;;;5.90;80.30;;;;;;4909446;29;20480;-43
2021/11/26 11:53:00;;;;;;;25.37;14.27;;;5.80;80.40;;;;;;4910117;29;20469;-43
2021/11/26 11:55:38;;;;;;;18.97;12.80;;;5.80;80.50;;;;;;4889178;29;21007;-43
2021/11/26 11:58:16;;;;;;;21.83;12.97;;;5.90;80.20;;;;;;4908839;29;20979;-42
2021/11/26 12:00:45;;;;;;;24.13;12.30;;;5.90;80.40;;;;;;4910633;29;20484;-42
2021/11/26 12:03:15;;;;;;;22.77;13.20;;;5.90;80.40;;;;;;4896552;29;20441;-42
2021/11/26 12:05:53;;;;;;;24.30;13.03;;;5.90;79.60;;;;;;4909459;29;20467;-43
2021/11/26 12:08:20;;;;;;;20.67;11.80;;;5.90;80.00;;;;;;4909680;29;20476;-42
2021/11/26 12:10:50;;;;;;;22.07;12.27;;;5.90;80.70;;;;;;4895108;29;20491;-43
2021/11/26 12:13:30;;;;;;;24.00;12.60;;;5.90;80.00;;;;;;4889569;29;20991;-42
2021/11/26 12:16:16;;;;;;;20.87;13.80;;;5.90;79.90;;;;;;4910492;29;20467;-43
2021/11/26 12:18:48;;;;;;;23.30;14.13;;;5.90;79.60;;;;;;4893272;29;20460;-42
2021/11/26 12:21:32;;;;;;;27.60;15.33;;;5.90;79.80;;;;;;4909762;29;20921;-42
2021/11/26 12:24:09;;;;;;;29.63;14.80;;;5.90;80.10;;;;;;4894250;29;20559;-43
2021/11/26 12:26:49;;;;;;;25.47;15.47;;;5.90;80.00;;;;;;4911235;29;20448;-42
2021/11/26 12:29:17;;;;;;;22.90;14.87;;;5.90;79.90;;;;;;4894219;29;20941;-42
2021/11/26 12:31:44;;;;;;;25.23;15.77;;;6.00;80.10;;;;;;4893122;29;20502;-42
2021/11/26 12:34:18;;;;;;;22.93;14.03;;;6.00;79.50;;;;;;4909784;29;20865;-42
2021/11/26 12:36:54;;;;;;;25.07;15.00;;;6.00;79.90;;;;;;4909214;29;20464;-42
2021/11/26 12:39:31;;;;;;;28.33;14.20;;;6.00;79.70;;;;;;4909523;29;20875;-42
2021/11/26 12:42:00;;;;;;;23.17;14.63;;;6.10;79.60;;;;;;4910876;29;20456;-43
2021/11/26 12:44:32;;;;;;;20.23;12.53;;;6.10;79.00;;;;;;4909677;29;20453;-43
2021/11/26 12:47:03;;;;;;;19.40;10.80;;;6.10;79.20;;;;;;4893486;29;20461;-42
2021/11/26 12:52:22;;;;;;;21.50;12.23;;;6.10;78.80;;;;;;4909605;29;20571;-42
2021/11/26 12:54:51;;;;;;;24.03;10.60;;;6.10;78.50;;;;;;4891976;29;20469;-42
2021/11/26 12:57:29;;;;;;;23.23;11.63;;;6.10;78.20;;;;;;4907555;29;20483;-42
2021/11/26 13:00:04;;;;;;;22.77;12.70;;;6.10;78.60;;;;;;4892134;29;20869;-42